Station History

Weather Underground - logo

Station Historical Data
Daily Summary for August 28, 2017 Units:  English    Metric   Both
« Previous Day
Next Day »
Daily Weekly Monthly Yearly Custom
  High: Low: Average:
Temperature: TemperatureF °F 69.2 °F 87.4 °F
Dew Point: DewpointF °F 57.1 °F 64.2 °F
Humidity: Humidity % 24 % 49 %
Wind Speed: WindSpeedMPH mph 0.0 mph 1.1 mph
Wind Gust: WindSpeedGustMPH mph - -
Wind:- - SSW
Pressure: PressureIn in 29.65 in -
Precipitation: 0.00 in    
Historical Graphs
 
 
Tabular Data for August 28, 2017
Time Temperature Dew Point Pressure Wind Wind Speed Wind Gust Humidity Rainfall Rate (Hourly)
TemperatureF °F DewpointF °F PressureIn in Calm     Humidity % HourlyPrecipIn in
00:02 76.9 °F 66.0 °F 29.78 in Calm     69 % 0.00 in
00:07 76.6 °F 66.1 °F 29.78 in Calm     70 % 0.00 in
00:12 76.2 °F 66.1 °F 29.78 in Calm     71 % 0.00 in
00:17 75.8 °F 65.3 °F 29.78 in Calm     70 % 0.00 in
00:22 75.4 °F 64.1 °F 29.79 in Calm     68 % 0.00 in
00:27 75.2 °F 64.7 °F 29.79 in Calm     70 % 0.00 in
00:32 75.1 °F 64.2 °F 29.78 in Calm     69 % 0.00 in
00:37 75.0 °F 64.5 °F 29.78 in Calm     70 % 0.00 in
00:42 74.9 °F 64.0 °F 29.78 in Calm     69 % 0.00 in
00:47 75.0 °F 62.9 °F 29.78 in Calm   0.1 mph 66 % 0.00 in
00:52 75.5 °F 62.9 °F 29.79 in Calm   0.1 mph 65 % 0.00 in
00:57 75.3 °F 62.7 °F 29.79 in Calm     65 % 0.00 in
01:02 74.9 °F 63.6 °F 29.79 in SE 1.2 mph   68 % 0.00 in
01:07 74.2 °F 63.0 °F 29.79 in Calm     68 % 0.00 in
01:12 73.8 °F 63.0 °F 29.79 in Calm     69 % 0.00 in
01:17 73.5 °F 62.3 °F 29.79 in Calm     68 % 0.00 in
01:22 73.3 °F 62.5 °F 29.79 in SE 1.2 mph   69 % 0.00 in
01:28 73.3 °F 62.5 °F 29.79 in SE 1.2 mph   69 % 0.00 in
01:33 73.2 °F 62.4 °F 29.79 in Calm     69 % 0.00 in
01:38 73.4 °F 62.2 °F 29.79 in Calm     68 % 0.00 in
01:43 73.9 °F 61.8 °F 29.79 in ESE 1.2 mph 1.2 mph 66 % 0.00 in
01:48 74.3 °F 61.3 °F 29.78 in Calm     64 % 0.00 in
01:53 75.0 °F 61.5 °F 29.78 in ESE 1.2 mph 1.2 mph 63 % 0.00 in
01:58 75.2 °F 61.3 °F 29.79 in SE 1.2 mph 1.2 mph 62 % 0.00 in
02:03 75.1 °F 60.3 °F 29.78 in Calm     60 % 0.00 in
02:08 75.0 °F 62.0 °F 29.78 in Calm     64 % 0.00 in
02:13 75.1 °F 60.3 °F 29.78 in Calm     60 % 0.00 in
02:18 75.3 °F 60.5 °F 29.78 in Calm     60 % 0.00 in
02:23 75.4 °F 61.5 °F 29.78 in Calm     62 % 0.00 in
02:28 74.9 °F 61.0 °F 29.79 in Calm     62 % 0.00 in
02:33 74.3 °F 60.0 °F 29.78 in Calm     61 % 0.00 in
02:38 74.0 °F 60.2 °F 29.78 in Calm     62 % 0.00 in
02:43 73.8 °F 60.0 °F 29.79 in SE 1.2 mph   62 % 0.00 in
02:48 74.1 °F 59.8 °F 29.78 in Calm     61 % 0.00 in
02:53 74.6 °F 59.3 °F 29.78 in Calm     59 % 0.00 in
02:58 74.9 °F 59.6 °F 29.78 in Calm     59 % 0.00 in
03:03 74.7 °F 61.7 °F 29.78 in Calm     64 % 0.00 in
03:08 74.0 °F 61.5 °F 29.78 in Calm     65 % 0.00 in
03:13 73.7 °F 61.2 °F 29.78 in Calm     65 % 0.00 in
03:18 73.4 °F 61.8 °F 29.78 in Calm     67 % 0.00 in
03:23 73.0 °F 61.8 °F 29.78 in Calm     68 % 0.00 in
03:28 72.7 °F 61.9 °F 29.78 in Calm     69 % 0.00 in
03:33 72.4 °F 62.5 °F 29.78 in Calm     71 % 0.00 in
03:38 72.1 °F 62.2 °F 29.78 in Calm     71 % 0.00 in
03:43 71.8 °F 61.9 °F 29.78 in Calm     71 % 0.00 in
03:48 71.7 °F 62.2 °F 29.78 in Calm     72 % 0.00 in
03:53 71.6 °F 61.7 °F 29.77 in Calm     71 % 0.00 in
03:58 71.4 °F 61.1 °F 29.77 in Calm     70 % 0.00 in
04:03 71.2 °F 60.9 °F 29.77 in Calm     70 % 0.00 in
04:11 71.0 °F 61.5 °F 29.77 in Calm     72 % 0.00 in
04:16 71.3 °F 61.8 °F 29.77 in Calm     72 % 0.00 in
04:21 71.2 °F 61.7 °F 29.78 in Calm     72 % 0.00 in
04:26 70.8 °F 61.7 °F 29.77 in Calm     73 % 0.00 in
04:31 70.3 °F 61.6 °F 29.78 in Calm     74 % 0.00 in
04:36 69.9 °F 61.6 °F 29.78 in Calm     75 % 0.00 in
04:42 69.7 °F 61.8 °F 29.78 in Calm     76 % 0.00 in
04:47 69.5 °F 62.0 °F 29.78 in Calm     77 % 0.00 in
04:52 69.4 °F 62.2 °F 29.78 in Calm     78 % 0.00 in
04:57 69.3 °F 62.1 °F 29.78 in Calm     78 % 0.00 in
05:02 69.2 °F 61.3 °F 29.78 in Calm     76 % 0.00 in
05:07 69.3 °F 61.4 °F 29.78 in Calm     76 % 0.00 in
05:12 69.4 °F 61.5 °F 29.78 in Calm     76 % 0.00 in
05:17 69.5 °F 60.8 °F 29.78 in Calm     74 % 0.00 in
05:22 69.8 °F 61.5 °F 29.79 in Calm     75 % 0.00 in
05:27 69.7 °F 60.3 °F 29.78 in Calm     72 % 0.00 in
05:32 70.1 °F 60.7 °F 29.79 in Calm     72 % 0.00 in
05:37 70.2 °F 59.1 °F 29.79 in Calm     68 % 0.00 in
05:42 70.6 °F 58.7 °F 29.79 in Calm     66 % 0.00 in
05:52 70.7 °F 58.8 °F 29.79 in SE 1.2 mph   66 % 0.00 in
05:57 70.5 °F 57.7 °F 29.79 in Calm     64 % 0.00 in
06:02 70.9 °F 57.7 °F 29.79 in Calm     63 % 0.00 in
06:07 71.1 °F 57.9 °F 29.79 in Calm     63 % 0.00 in
06:12 71.1 °F 57.4 °F 29.79 in Calm     62 % 0.00 in
06:17 71.2 °F 58.0 °F 29.79 in Calm     63 % 0.00 in
06:22 71.2 °F 57.1 °F 29.79 in Calm     61 % 0.00 in
06:27 71.6 °F 57.9 °F 29.79 in Calm     62 % 0.00 in
06:32 71.8 °F 58.1 °F 29.79 in Calm     62 % 0.00 in
06:37 71.7 °F 59.7 °F 29.79 in Calm     66 % 0.00 in
06:42 71.3 °F 58.9 °F 29.80 in Calm     65 % 0.00 in
06:47 71.2 °F 58.4 °F 29.80 in Calm     64 % 0.00 in
06:52 71.1 °F 58.7 °F 29.80 in Calm     65 % 0.00 in
06:57 71.2 °F 59.7 °F 29.80 in Calm     67 % 0.00 in
07:02 71.1 °F 59.6 °F 29.80 in Calm     67 % 0.00 in
07:07 71.2 °F 59.7 °F 29.80 in Calm     67 % 0.00 in
07:12 71.6 °F 60.1 °F 29.80 in ESE 1.2 mph   67 % 0.00 in
07:17 72.3 °F 59.0 °F 29.80 in Calm     63 % 0.00 in
07:22 72.8 °F 58.6 °F 29.80 in Calm     61 % 0.00 in
07:27 73.1 °F 58.8 °F 29.81 in Calm     61 % 0.00 in
07:32 73.3 °F 57.1 °F 29.81 in Calm     57 % 0.00 in
07:37 73.9 °F 58.2 °F 29.81 in Calm     58 % 0.00 in
07:42 74.4 °F 58.7 °F 29.81 in Calm     58 % 0.00 in
07:47 75.1 °F 59.8 °F 29.81 in ESE 1.2 mph   59 % 0.00 in
07:53 76.3 °F 60.4 °F 29.81 in Calm     58 % 0.00 in
07:58 77.5 °F 61.6 °F 29.81 in SE 1.2 mph   58 % 0.00 in
08:03 78.3 °F 62.3 °F 29.81 in East 2.3 mph 2.3 mph 58 % 0.00 in
08:08 79.0 °F 63.0 °F 29.81 in SE 1.2 mph   58 % 0.00 in
08:13 79.8 °F 61.7 °F 29.81 in SSE 1.2 mph 1.2 mph 54 % 0.00 in
08:18 80.9 °F 62.2 °F 29.81 in Calm     53 % 0.00 in
08:23 81.5 °F 61.6 °F 29.81 in SE 1.2 mph 1.2 mph 51 % 0.00 in
08:28 81.8 °F 61.3 °F 29.81 in SE 2.3 mph 2.3 mph 50 % 0.00 in
08:33 82.3 °F 61.2 °F 29.81 in ESE 1.2 mph 1.2 mph 49 % 0.00 in
08:38 83.0 °F 61.9 °F 29.80 in ESE 1.2 mph 1.2 mph 49 % 0.00 in
08:43 83.8 °F 63.2 °F 29.81 in SSE 1.0 mph 1.0 mph 50 % 0.00 in
08:48 84.4 °F 62.6 °F 29.81 in ESE 3.5 mph 3.5 mph 48 % 0.00 in
08:53 84.5 °F 63.2 °F 29.81 in SSE 1.2 mph 1.2 mph 49 % 0.00 in
08:58 85.1 °F 64.4 °F 29.81 in South 3.5 mph 3.5 mph 50 % 0.00 in
09:03 85.7 °F 64.3 °F 29.81 in SSE 2.3 mph 2.3 mph 49 % 0.00 in
09:08 86.6 °F 64.6 °F 29.80 in South 2.3 mph 2.3 mph 48 % 0.00 in
09:13 87.0 °F 64.3 °F 29.81 in SE 3.5 mph 3.5 mph 47 % 0.00 in
09:18 87.3 °F 64.6 °F 29.80 in ENE 2.3 mph 2.3 mph 47 % 0.00 in
09:23 87.7 °F 64.4 °F 29.80 in East 2.3 mph 2.3 mph 46 % 0.00 in
09:28 88.2 °F 64.2 °F 29.80 in SW 2.3 mph 2.3 mph 45 % 0.00 in
09:33 88.9 °F 64.8 °F 29.80 in SSW 3.5 mph 3.5 mph 45 % 0.00 in
09:38 89.3 °F 64.5 °F 29.80 in SSE 3.5 mph 3.5 mph 44 % 0.00 in
09:43 89.3 °F 65.2 °F 29.80 in ESE 3.5 mph 3.5 mph 45 % 0.00 in
09:48 89.5 °F 64.7 °F 29.80 in SE 3.5 mph 3.5 mph 44 % 0.00 in
09:53 89.8 °F 65.0 °F 29.80 in South 3.5 mph 3.5 mph 44 % 0.00 in
09:58 90.6 °F 65.0 °F 29.80 in SSW 3.5 mph 3.5 mph 43 % 0.00 in
10:03 91.0 °F 65.4 °F 29.80 in SW 4.6 mph 4.6 mph 43 % 0.00 in
10:08 91.5 °F 65.8 °F 29.80 in NE 2.3 mph 2.3 mph 43 % 0.00 in
10:13 91.4 °F 64.4 °F 29.80 in SE 3.5 mph 3.5 mph 41 % 0.00 in
10:18 91.8 °F 65.4 °F 29.80 in South 3.5 mph 3.5 mph 42 % 0.00 in
10:23 92.2 °F 66.5 °F 29.79 in SE 3.5 mph 3.5 mph 43 % 0.00 in
10:28 92.7 °F 66.2 °F 29.80 in SSE 1.2 mph 1.2 mph 42 % 0.00 in
10:33 93.1 °F 65.2 °F 29.79 in ESE 2.0 mph 2.0 mph 40 % 0.00 in
10:38 93.6 °F 65.6 °F 29.79 in WSW 3.0 mph 3.0 mph 40 % 0.00 in
10:43 94.1 °F 66.1 °F 29.79 in SSE 1.2 mph 1.2 mph 40 % 0.00 in
10:48 94.7 °F 66.6 °F 29.79 in ESE 3.5 mph 3.5 mph 40 % 0.00 in
10:54 94.8 °F 64.5 °F 29.79 in ENE 3.5 mph 3.5 mph 37 % 0.00 in
10:59 94.9 °F 66.1 °F 29.79 in South 3.5 mph 3.5 mph 39 % 0.00 in
11:04 95.3 °F 67.2 °F 29.79 in ESE 1.2 mph 1.2 mph 40 % 0.00 in
11:09 95.5 °F 64.3 °F 29.79 in SSE 3.5 mph 3.5 mph 36 % 0.00 in
11:14 95.6 °F 65.2 °F 29.79 in ESE 3.5 mph 3.5 mph 37 % 0.00 in
11:19 95.7 °F 65.3 °F 29.78 in SSE 3.5 mph 3.5 mph 37 % 0.00 in
11:24 96.4 °F 65.1 °F 29.78 in NNW 2.0 mph 2.0 mph 36 % 0.00 in
11:29 96.7 °F 65.4 °F 29.78 in ESE 1.2 mph 1.2 mph 36 % 0.00 in
11:34 97.1 °F 65.7 °F 29.78 in NW 3.5 mph 3.5 mph 36 % 0.00 in
11:39 97.5 °F 66.9 °F 29.78 in North 1.2 mph 1.2 mph 37 % 0.00 in
11:44 97.8 °F 65.5 °F 29.77 in NW 2.3 mph 2.3 mph 35 % 0.00 in
11:49 97.9 °F 65.6 °F 29.77 in NNE 2.3 mph 2.3 mph 35 % 0.00 in
11:54 98.2 °F 65.9 °F 29.77 in SSW 3.5 mph 3.5 mph 35 % 0.00 in
11:59 98.6 °F 66.2 °F 29.77 in SE 2.3 mph 2.3 mph 35 % 0.00 in
12:04 99.1 °F 66.6 °F 29.77 in West 2.0 mph 2.0 mph 35 % 0.00 in
12:09 99.3 °F 65.1 °F 29.77 in NNE 3.0 mph 3.0 mph 33 % 0.00 in
12:14 99.5 °F 65.3 °F 29.76 in WSW 2.3 mph 2.3 mph 33 % 0.00 in
12:19 99.4 °F 66.1 °F 29.76 in East 3.5 mph 3.5 mph 34 % 0.00 in
12:24 100.1 °F 64.9 °F 29.76 in North 2.0 mph 2.0 mph 32 % 0.00 in
12:29 100.3 °F 65.1 °F 29.76 in ESE 2.3 mph 2.3 mph 32 % 0.00 in
12:34 100.7 °F 65.5 °F 29.76 in ENE 1.2 mph 1.2 mph 32 % 0.00 in
12:39 101.0 °F 65.7 °F 29.75 in WSW 2.3 mph 2.3 mph 32 % 0.00 in
12:44 100.8 °F 66.4 °F 29.75 in SSW 1.2 mph 1.2 mph 33 % 0.00 in
12:49 101.5 °F 65.2 °F 29.75 in SE 1.2 mph   31 % 0.00 in
12:54 102.2 °F 64.9 °F 29.75 in Calm   0.2 mph 30 % 0.00 in
12:59 102.4 °F 67.8 °F 29.75 in South 1.2 mph   33 % 0.00 in
13:04 102.4 °F 64.1 °F 29.75 in ENE 2.3 mph 2.3 mph 29 % 0.00 in
13:09 102.3 °F 65.9 °F 29.75 in SE 1.2 mph   31 % 0.00 in
13:14 102.7 °F 63.3 °F 29.75 in WNW 2.3 mph 2.3 mph 28 % 0.00 in
13:19 102.7 °F 63.3 °F 29.75 in NNE 1.2 mph 1.2 mph 28 % 0.00 in
13:24 102.9 °F 62.5 °F 29.75 in NNW 2.3 mph 2.3 mph 27 % 0.00 in
13:29 102.8 °F 62.4 °F 29.75 in NW 3.0 mph 3.0 mph 27 % 0.00 in
13:34 102.5 °F 65.2 °F 29.74 in NW 2.0 mph 2.0 mph 30 % 0.00 in
13:39 102.6 °F 65.2 °F 29.74 in NW 1.0 mph 1.0 mph 30 % 0.00 in
13:44 102.8 °F 66.4 °F 29.74 in WSW 2.3 mph 2.3 mph 31 % 0.00 in
13:49 103.2 °F 67.6 °F 29.74 in Calm     32 % 0.00 in
13:54 104.1 °F 67.5 °F 29.74 in East 1.2 mph 1.2 mph 31 % 0.00 in
13:59 103.7 °F 67.1 °F 29.73 in WNW 2.3 mph 2.3 mph 31 % 0.00 in
14:04 104.3 °F 65.7 °F 29.73 in SSE 2.3 mph 2.3 mph 29 % 0.00 in
14:09 104.7 °F 65.0 °F 29.73 in NE 1.2 mph 1.2 mph 28 % 0.00 in
14:14 104.7 °F 62.9 °F 29.72 in WSW 3.5 mph 3.5 mph 26 % 0.00 in
14:19 104.7 °F 64.0 °F 29.72 in NNE 3.5 mph 3.5 mph 27 % 0.00 in
14:24 104.1 °F 62.4 °F 29.72 in NW 3.0 mph 3.0 mph 26 % 0.00 in
14:30 103.6 °F 62.0 °F 29.71 in NW 1.2 mph 1.7 mph 26 % 0.00 in
14:35 103.6 °F 62.0 °F 29.71 in WNW 2.3 mph 2.3 mph 26 % 0.00 in
14:40 104.0 °F 63.4 °F 29.71 in SSE 2.3 mph 2.3 mph 27 % 0.00 in
14:45 104.9 °F 63.1 °F 29.71 in East 1.2 mph 1.2 mph 26 % 0.00 in
14:50 105.3 °F 63.4 °F 29.70 in East 1.2 mph 1.2 mph 26 % 0.00 in
14:55 106.0 °F 64.0 °F 29.70 in South 2.0 mph 2.0 mph 26 % 0.00 in
15:00 106.4 °F 63.2 °F 29.70 in NW 1.2 mph   25 % 0.00 in
15:05 105.8 °F 63.9 °F 29.70 in NE 3.5 mph 3.5 mph 26 % 0.00 in
15:10 105.9 °F 65.0 °F 29.69 in Calm     27 % 0.00 in
15:15 105.8 °F 61.6 °F 29.69 in NW 2.3 mph 2.3 mph 24 % 0.00 in
15:20 105.9 °F 62.8 °F 29.69 in WNW 3.5 mph 3.5 mph 25 % 0.00 in
15:25 105.8 °F 62.7 °F 29.69 in WNW 3.5 mph 3.5 mph 25 % 0.00 in
15:30 106.1 °F 65.2 °F 29.69 in WNW 1.2 mph 1.2 mph 27 % 0.00 in
15:35 106.2 °F 65.3 °F 29.68 in West 2.3 mph 2.3 mph 27 % 0.00 in
15:40 106.4 °F 64.4 °F 29.68 in NW 1.2 mph 1.2 mph 26 % 0.00 in
15:45 106.1 °F 64.1 °F 29.68 in SW 2.3 mph 2.3 mph 26 % 0.00 in
15:50 106.3 °F 64.3 °F 29.68 in WNW 2.3 mph 2.3 mph 26 % 0.00 in
15:55 106.1 °F 64.1 °F 29.68 in East 1.2 mph 1.2 mph 26 % 0.00 in
16:00 106.1 °F 64.1 °F 29.68 in NW 2.3 mph 2.3 mph 26 % 0.00 in
16:05 106.3 °F 66.4 °F 29.67 in East 2.0 mph   28 % 0.00 in
16:10 106.4 °F 63.2 °F 29.67 in NW 1.2 mph 1.2 mph 25 % 0.00 in
16:15 106.4 °F 64.4 °F 29.67 in West 2.3 mph 2.3 mph 26 % 0.00 in
16:20 106.3 °F 64.3 °F 29.67 in NNW 1.2 mph 1.2 mph 26 % 0.00 in
16:25 106.5 °F 64.4 °F 29.67 in NNE 2.0 mph 2.0 mph 26 % 0.00 in
16:30 106.1 °F 64.1 °F 29.67 in North 3.5 mph 3.5 mph 26 % 0.00 in
16:32 106.0 °F 62.9 °F 29.67 in NW 3.5 mph 3.5 mph 25 % 0.00 in
16:37 105.5 °F 63.6 °F 29.67 in WNW 3.5 mph 3.5 mph 26 % 0.00 in
16:42 105.4 °F 63.5 °F 29.66 in West 4.6 mph 4.6 mph 26 % 0.00 in
16:47 105.4 °F 63.5 °F 29.66 in NNE 2.3 mph 2.3 mph 26 % 0.00 in
16:52 105.5 °F 64.7 °F 29.66 in WNW 3.5 mph 3.5 mph 27 % 0.00 in
16:57 105.1 °F 63.3 °F 29.66 in NW 3.5 mph 3.5 mph 26 % 0.00 in
17:02 105.0 °F 63.2 °F 29.66 in WNW 2.3 mph 2.3 mph 26 % 0.00 in
17:07 105.2 °F 64.4 °F 29.66 in WNW 2.3 mph 2.3 mph 27 % 0.00 in
17:12 105.0 °F 64.3 °F 29.66 in NW 2.3 mph 2.3 mph 27 % 0.00 in
17:17 104.9 °F 63.1 °F 29.66 in NW 3.5 mph 3.5 mph 26 % 0.00 in
17:22 104.8 °F 64.1 °F 29.66 in NW 1.2 mph 1.2 mph 27 % 0.00 in
17:27 104.8 °F 64.1 °F 29.66 in NW 2.3 mph 2.3 mph 27 % 0.00 in
17:32 104.5 °F 63.8 °F 29.66 in NW 1.2 mph 1.2 mph 27 % 0.00 in
17:37 104.3 °F 63.7 °F 29.66 in WNW 2.3 mph 2.3 mph 27 % 0.00 in
17:42 104.1 °F 63.5 °F 29.66 in NW 2.3 mph 2.3 mph 27 % 0.00 in
17:47 104.1 °F 65.5 °F 29.66 in NW 2.3 mph 2.3 mph 29 % 0.00 in
17:52 103.8 °F 64.3 °F 29.66 in NW 2.3 mph 2.3 mph 28 % 0.00 in
17:57 103.4 °F 63.9 °F 29.66 in NNW 3.5 mph 3.5 mph 28 % 0.00 in
18:02 103.2 °F 62.7 °F 29.65 in NNW 3.5 mph 3.5 mph 27 % 0.00 in
18:07 103.1 °F 63.7 °F 29.65 in NW 2.3 mph 2.3 mph 28 % 0.00 in
18:12 102.9 °F 62.5 °F 29.65 in NW 2.3 mph 2.3 mph 27 % 0.00 in
18:17 102.8 °F 62.4 °F 29.65 in NW 2.3 mph 2.3 mph 27 % 0.00 in
18:22 102.2 °F 63.9 °F 29.65 in WNW 1.2 mph 1.2 mph 29 % 0.00 in
18:27 101.5 °F 64.3 °F 29.65 in WNW 1.2 mph 1.2 mph 30 % 0.00 in
18:32 101.1 °F 63.9 °F 29.65 in Calm     30 % 0.00 in
18:37 100.9 °F 63.8 °F 29.65 in WNW 1.2 mph 1.2 mph 30 % 0.00 in
18:42 100.7 °F 65.5 °F 29.65 in WNW 1.2 mph 1.2 mph 32 % 0.00 in
18:43 100.6 °F 65.4 °F 29.65 in NW 1.2 mph 1.2 mph 32 % 0.00 in
18:48 100.1 °F 65.8 °F 29.65 in NW 1.2 mph   33 % 0.00 in
18:53 99.4 °F 66.9 °F 29.65 in NW 1.0 mph   35 % 0.00 in
18:58 98.8 °F 67.2 °F 29.65 in Calm     36 % 0.00 in
19:03 98.3 °F 67.6 °F 29.65 in Calm     37 % 0.00 in
19:08 97.9 °F 68.0 °F 29.65 in Calm     38 % 0.00 in
19:14 97.2 °F 68.9 °F 29.65 in Calm     40 % 0.00 in
19:19 96.6 °F 68.3 °F 29.65 in Calm     40 % 0.00 in
19:24 96.0 °F 68.5 °F 29.65 in Calm     41 % 0.00 in
19:29 95.4 °F 68.7 °F 29.65 in Calm     42 % 0.00 in
19:34 94.8 °F 68.8 °F 29.65 in Calm     43 % 0.00 in
19:44 93.2 °F 69.3 °F 29.65 in Calm     46 % 0.00 in
19:49 92.6 °F 70.0 °F 29.65 in Calm     48 % 0.00 in
19:54 91.9 °F 70.0 °F 29.65 in Calm     49 % 0.00 in
19:59 91.3 °F 70.1 °F 29.65 in Calm     50 % 0.00 in
20:04 90.6 °F 69.4 °F 29.66 in Calm     50 % 0.00 in
20:09 90.3 °F 70.3 °F 29.66 in Calm     52 % 0.00 in
20:14 89.9 °F 70.5 °F 29.66 in Calm     53 % 0.00 in
20:21 89.3 °F 71.0 °F 29.66 in Calm     55 % 0.00 in
20:22 89.2 °F 71.5 °F 29.66 in Calm     56 % 0.00 in
20:24 89.0 °F 71.3 °F 29.66 in Calm     56 % 0.00 in
20:27 88.7 °F 69.4 °F 29.67 in Calm     53 % 0.00 in
20:29 88.5 °F 70.3 °F 29.67 in Calm     55 % 0.00 in
20:34 88.2 °F 72.1 °F 29.67 in Calm     59 % 0.00 in
20:39 88.0 °F 71.9 °F 29.67 in Calm     59 % 0.00 in
20:44 87.6 °F 71.5 °F 29.67 in Calm     59 % 0.00 in
20:49 87.3 °F 71.2 °F 29.67 in Calm     59 % 0.00 in
20:50 87.2 °F 71.1 °F 29.67 in Calm     59 % 0.00 in
20:55 86.6 °F 71.5 °F 29.67 in Calm     61 % 0.00 in
21:00 86.1 °F 71.1 °F 29.67 in Calm     61 % 0.00 in
21:05 85.9 °F 71.4 °F 29.68 in Calm     62 % 0.00 in
21:10 85.8 °F 71.3 °F 29.68 in Calm     62 % 0.00 in
21:15 85.5 °F 71.5 °F 29.69 in Calm     63 % 0.00 in
21:20 85.1 °F 71.5 °F 29.69 in Calm     64 % 0.00 in
21:25 84.8 °F 71.3 °F 29.69 in Calm     64 % 0.00 in
21:30 84.6 °F 70.1 °F 29.69 in Calm     62 % 0.00 in
21:35 84.3 °F 70.3 °F 29.70 in Calm     63 % 0.00 in
21:40 84.2 °F 70.2 °F 29.70 in Calm     63 % 0.00 in
21:45 84.0 °F 70.0 °F 29.70 in Calm     63 % 0.00 in
21:50 84.1 °F 69.7 °F 29.70 in SE 1.2 mph   62 % 0.00 in
21:55 84.2 °F 69.3 °F 29.70 in Calm     61 % 0.00 in
22:01 84.2 °F 69.3 °F 29.70 in Calm     61 % 0.00 in
22:06 84.1 °F 68.7 °F 29.70 in Calm     60 % 0.00 in
22:11 83.9 °F 68.5 °F 29.70 in Calm     60 % 0.00 in
22:16 83.7 °F 68.8 °F 29.70 in Calm     61 % 0.00 in
22:17 83.6 °F 68.7 °F 29.70 in Calm     61 % 0.00 in
22:22 83.4 °F 68.5 °F 29.70 in Calm     61 % 0.00 in
22:27 83.1 °F 68.7 °F 29.70 in Calm     62 % 0.00 in
22:32 82.8 °F 68.4 °F 29.71 in SE 1.2 mph 1.2 mph 62 % 0.00 in
22:37 82.8 °F 68.0 °F 29.71 in Calm     61 % 0.00 in
22:42 82.7 °F 67.9 °F 29.71 in Calm     61 % 0.00 in
22:47 82.5 °F 67.7 °F 29.71 in SE 1.2 mph   61 % 0.00 in
22:52 82.5 °F 67.7 °F 29.71 in Calm     61 % 0.00 in
22:57 82.5 °F 67.2 °F 29.71 in ESE 1.2 mph 1.2 mph 60 % 0.00 in
23:02 82.5 °F 67.2 °F 29.71 in Calm     60 % 0.00 in
23:07 82.5 °F 67.2 °F 29.71 in Calm     60 % 0.00 in
23:12 82.4 °F 67.6 °F 29.71 in ESE 1.2 mph 1.2 mph 61 % 0.00 in
23:17 82.4 °F 67.6 °F 29.71 in SE 1.2 mph 1.2 mph 61 % 0.00 in
23:22 82.7 °F 67.4 °F 29.71 in SE 1.2 mph   60 % 0.00 in
23:27 82.7 °F 67.4 °F 29.71 in Calm     60 % 0.00 in
23:32 82.6 °F 67.3 °F 29.71 in Calm     60 % 0.00 in
23:37 82.4 °F 67.1 °F 29.72 in Calm     60 % 0.00 in
23:42 82.3 °F 67.0 °F 29.72 in Calm     60 % 0.00 in
23:47 82.3 °F 67.0 °F 29.72 in Calm     60 % 0.00 in
23:52 82.1 °F 67.3 °F 29.72 in Calm     61 % 0.00 in
23:57 81.9 °F 67.1 °F 29.72 in SE 2.3 mph 2.3 mph 61 % 0.00 in
Park Place, Exeter, Tulare County, California, USA
Compliments of Weather Underground - 2.75 mb